Time;durP1;ratioP1;P1;durP2;ratioP2;P2;SDS_P1;SDS_P2;PMS_P1;PMS_P2;Temp;Humidity;BMP_temperature;BMP_pressure;BME280_temperature;BME280_humidity;BME280_pressure;Samples;Min_cycle;Max_cycle;Signal;HPM_P1;HPM_P2
2022/06/30 00:02:10;;;;;;;7.72;4.32;;;22.50;99.90;;;;;;5088147;28;20048;-75
2022/06/30 00:04:36;;;;;;;5.28;3.90;;;22.50;99.90;;;;;;5107915;28;20030;-76
2022/06/30 00:07:02;;;;;;;4.93;3.55;;;22.40;99.90;;;;;;5090430;28;20800;-76
2022/06/30 00:09:27;;;;;;;4.10;3.50;;;22.40;99.90;;;;;;5074410;28;20173;-75
2022/06/30 00:11:53;;;;;;;4.82;3.33;;;22.30;99.90;;;;;;5071740;28;20051;-75
2022/06/30 00:14:19;;;;;;;3.80;3.40;;;22.20;99.90;;;;;;5088100;28;20130;-76
2022/06/30 00:16:45;;;;;;;3.45;3.15;;;22.20;99.90;;;;;;5110540;28;20039;-75
2022/06/30 00:19:10;;;;;;;5.68;3.20;;;22.10;99.90;;;;;;5086368;28;20044;-75
2022/06/30 00:21:36;;;;;;;4.07;3.00;;;22.00;99.90;;;;;;5070250;28;20032;-76
2022/06/30 00:24:02;;;;;;;3.03;2.70;;;21.90;99.90;;;;;;5096347;28;20380;-76
2022/06/30 00:26:28;;;;;;;4.70;2.80;;;21.80;99.90;;;;;;5081276;28;20043;-76
2022/06/30 00:28:53;;;;;;;3.47;2.90;;;21.80;99.90;;;;;;5087996;28;20046;-76
2022/06/30 00:31:19;;;;;;;4.18;3.05;;;21.80;99.90;;;;;;5090485;28;20050;-76
2022/06/30 00:33:45;;;;;;;3.03;2.67;;;21.70;99.90;;;;;;5073652;28;20047;-76
2022/06/30 00:36:10;;;;;;;3.08;2.65;;;21.70;99.90;;;;;;5112611;28;20377;-75
2022/06/30 00:38:38;;;;;;;3.55;3.00;;;21.70;99.90;;;;;;5094246;28;20395;-76
2022/06/30 00:41:03;;;;;;;3.55;3.10;;;21.60;99.90;;;;;;5076237;28;20077;-76
2022/06/30 00:43:29;;;;;;;5.53;3.35;;;21.60;99.90;;;;;;5091963;28;20487;-76
2022/06/30 00:45:55;;;;;;;3.85;3.20;;;21.60;99.90;;;;;;5086895;28;20399;-76
2022/06/30 00:48:21;;;;;;;4.07;3.58;;;21.50;99.90;;;;;;5093965;28;20036;-76
2022/06/30 00:50:46;;;;;;;3.97;3.55;;;21.40;99.90;;;;;;5111508;28;20032;-76
2022/06/30 00:53:13;;;;;;;3.83;3.40;;;21.30;99.90;;;;;;5112421;28;20127;-76
2022/06/30 00:55:38;;;;;;;;;;;21.30;99.90;;;;;;5089437;28;20114;-76
2022/06/30 00:58:06;;;;;;;4.43;3.97;;;21.20;99.90;;;;;;5110985;28;20402;-76
2022/06/30 01:00:39;;;;;;;4.28;3.88;;;21.10;99.90;;;;;;5094132;28;20078;-75
2022/06/30 01:03:09;;;;;;;4.55;3.83;;;21.00;99.90;;;;;;5091348;28;20043;-75
2022/06/30 01:05:36;;;;;;;4.38;3.85;;;21.00;99.90;;;;;;5091594;28;20047;-76
2022/06/30 01:08:04;;;;;;;3.80;3.30;;;21.00;99.90;;;;;;5089179;28;20592;-77
2022/06/30 01:13:14;;;;;;;3.95;3.40;;;21.00;99.90;;;;;;5093493;28;20052;-75
2022/06/30 01:15:40;;;;;;;5.75;3.45;;;21.00;99.90;;;;;;5109407;28;20376;-76
2022/06/30 01:18:05;;;;;;;3.92;3.17;;;20.90;99.90;;;;;;5076728;28;20051;-76
2022/06/30 01:20:33;;;;;;;4.43;3.30;;;20.90;99.90;;;;;;5093742;28;20067;-75
2022/06/30 01:23:02;;;;;;;6.25;3.40;;;20.90;99.90;;;;;;5093625;28;20468;-76
2022/06/30 01:25:28;;;;;;;5.03;3.60;;;20.90;99.90;;;;;;5092423;28;20044;-76
2022/06/30 01:27:55;;;;;;;4.35;3.38;;;20.80;99.90;;;;;;5094276;28;20051;-74
2022/06/30 01:30:22;;;;;;;6.70;3.40;;;20.80;99.90;;;;;;5094440;28;20044;-76
2022/06/30 01:32:47;;;;;;;4.32;3.55;;;20.80;99.90;;;;;;5107946;28;20407;-76
2022/06/30 01:35:14;;;;;;;4.60;3.20;;;20.80;99.90;;;;;;5093241;28;20047;-75
2022/06/30 01:37:58;;;;;;;;;;;20.70;99.90;;;;;;5082079;28;20045;-75
2022/06/30 01:40:26;;;;;;;5.53;3.28;;;20.70;99.90;;;;;;5072709;28;20018;-76
2022/06/30 01:42:52;;;;;;;6.18;2.90;;;20.70;99.90;;;;;;5090043;28;20393;-76
2022/06/30 01:45:19;;;;;;;4.95;3.05;;;20.70;99.90;;;;;;5057496;28;20036;-75
2022/06/30 01:47:44;;;;;;;4.32;3.00;;;20.70;99.90;;;;;;5106634;28;20453;-75
2022/06/30 01:50:16;;;;;;;3.80;3.22;;;20.70;99.90;;;;;;5087891;28;20040;-76
2022/06/30 01:52:42;;;;;;;4.72;2.90;;;20.70;99.90;;;;;;5093376;28;20107;-76
2022/06/30 01:55:08;;;;;;;5.28;2.90;;;20.60;99.90;;;;;;5091537;28;20131;-76
2022/06/30 01:57:35;;;;;;;3.85;3.10;;;20.60;99.90;;;;;;5072217;28;20047;-75
2022/06/30 02:00:03;;;;;;;3.83;3.00;;;20.60;99.90;;;;;;5074370;28;20048;-75
2022/06/30 02:02:29;;;;;;;5.03;3.45;;;20.50;99.90;;;;;;5093106;28;20036;-75
2022/06/30 02:04:54;;;;;;;4.63;2.92;;;20.50;99.90;;;;;;5092647;28;20123;-76
2022/06/30 02:07:21;;;;;;;3.75;2.75;;;20.50;99.90;;;;;;5090137;28;20043;-76
2022/06/30 02:09:50;;;;;;;4.00;3.00;;;20.50;99.90;;;;;;5101101;28;20032;-76
2022/06/30 02:15:01;;;;;;;5.32;3.00;;;20.50;99.90;;;;;;5091799;28;20044;-75
2022/06/30 02:17:27;;;;;;;3.65;2.70;;;20.40;99.90;;;;;;5092447;28;20597;-76
2022/06/30 02:19:53;;;;;;;4.57;2.90;;;20.40;99.90;;;;;;5092361;28;20066;-76
2022/06/30 02:22:18;;;;;;;3.20;2.70;;;20.30;99.90;;;;;;5110212;28;20487;-75
2022/06/30 02:24:44;;;;;;;5.55;3.13;;;20.30;99.90;;;;;;5080591;28;20387;-76
2022/06/30 02:27:10;;;;;;;5.47;2.88;;;20.30;99.90;;;;;;5071435;28;20097;-75
2022/06/30 02:29:36;;;;;;;3.50;2.88;;;20.30;99.90;;;;;;5072487;28;20097;-77
2022/06/30 02:32:01;;;;;;;3.42;2.90;;;20.20;99.90;;;;;;5072098;28;20039;-75
2022/06/30 02:34:30;;;;;;;5.50;3.22;;;20.20;99.90;;;;;;5071688;28;20039;-76
2022/06/30 02:36:56;;;;;;;5.40;3.20;;;20.20;99.90;;;;;;5078906;28;20102;-76
2022/06/30 02:39:22;;;;;;;4.20;3.10;;;20.00;99.90;;;;;;5092028;28;20106;-76
2022/06/30 02:41:48;;;;;;;3.78;2.90;;;20.00;99.90;;;;;;5091433;28;20031;-75
2022/06/30 02:44:14;;;;;;;5.57;2.90;;;20.00;99.90;;;;;;5092319;28;20479;-75
2022/06/30 02:46:39;;;;;;;6.95;3.22;;;20.00;99.90;;;;;;5091967;28;20095;-76
2022/06/30 02:49:05;;;;;;;5.25;3.30;;;19.90;99.90;;;;;;5074910;28;20043;-75
2022/06/30 02:51:31;;;;;;;5.82;3.40;;;19.80;99.90;;;;;;5091440;28;20040;-76
2022/06/30 02:53:57;;;;;;;5.22;3.55;;;19.80;99.90;;;;;;5074956;28;20092;-76
2022/06/30 02:56:23;;;;;;;8.00;3.33;;;19.80;99.90;;;;;;5109895;28;20088;-76
2022/06/30 02:58:49;;;;;;;4.57;3.70;;;19.70;99.90;;;;;;5091369;28;20047;-75
2022/06/30 03:01:15;;;;;;;5.82;3.28;;;19.70;99.90;;;;;;5091522;28;20055;-75
2022/06/30 03:03:41;;;;;;;;;;;19.70;99.90;;;;;;5091990;28;20040;-76
2022/06/30 03:06:06;;;;;;;3.78;3.33;;;19.70;99.90;;;;;;5091693;28;19976;-75
2022/06/30 03:08:33;;;;;;;5.30;3.50;;;19.60;99.90;;;;;;5089986;28;20480;-77
2022/06/30 03:10:58;;;;;;;6.07;3.60;;;19.60;99.90;;;;;;5090414;28;20062;-76
2022/06/30 03:13:25;;;;;;;4.90;3.47;;;19.50;99.90;;;;;;5081368;28;20055;-75
2022/06/30 03:15:51;;;;;;;5.47;3.60;;;19.50;99.90;;;;;;5070881;28;20085;-75
2022/06/30 03:18:16;;;;;;;5.10;3.50;;;19.40;99.90;;;;;;5076825;28;20415;-75
2022/06/30 03:20:42;;;;;;;5.15;3.30;;;19.40;99.90;;;;;;5078894;28;20046;-75
2022/06/30 03:23:08;;;;;;;3.97;3.45;;;19.40;99.90;;;;;;5091179;28;20376;-76
2022/06/30 03:25:34;;;;;;;3.78;3.38;;;19.30;99.90;;;;;;5086243;28;20039;-76
2022/06/30 03:27:59;;;;;;;5.35;3.97;;;19.30;99.90;;;;;;5071162;28;20039;-76
2022/06/30 03:30:26;;;;;;;5.70;3.47;;;19.30;99.90;;;;;;5087709;28;20039;-76
2022/06/30 03:32:52;;;;;;;5.28;3.63;;;19.20;99.90;;;;;;5090010;28;20491;-76
2022/06/30 03:35:18;;;;;;;5.63;3.35;;;19.20;99.90;;;;;;5090783;28;20039;-76
2022/06/30 03:37:44;;;;;;;6.40;3.50;;;19.20;99.90;;;;;;5068200;28;20377;-76
2022/06/30 03:40:10;;;;;;;5.05;3.63;;;19.20;99.90;;;;;;5083219;28;20046;-76
2022/06/30 03:42:36;;;;;;;5.90;3.50;;;19.20;99.90;;;;;;5080986;28;20046;-75
2022/06/30 03:45:02;;;;;;;5.80;3.60;;;19.20;99.90;;;;;;5083494;28;20035;-76
2022/06/30 03:47:28;;;;;;;6.15;3.30;;;19.20;99.90;;;;;;5090568;28;20044;-76
2022/06/30 03:49:53;;;;;;;4.15;3.60;;;19.20;99.90;;;;;;5088664;28;20055;-76
2022/06/30 03:52:19;;;;;;;6.38;3.72;;;19.20;99.90;;;;;;5065045;28;20127;-75
2022/06/30 03:54:45;;;;;;;4.57;3.53;;;19.20;99.90;;;;;;5069337;28;20045;-74
2022/06/30 03:57:10;;;;;;;6.68;3.80;;;19.20;99.90;;;;;;5090727;28;20039;-75
2022/06/30 03:59:39;;;;;;;4.93;3.53;;;19.20;99.90;;;;;;5090456;28;20461;-75
2022/06/30 04:02:06;;;;;;;5.03;3.70;;;19.10;99.90;;;;;;5090961;28;20067;-76
2022/06/30 04:04:32;;;;;;;6.25;3.60;;;19.20;99.90;;;;;;5073981;28;20480;-76
2022/06/30 04:06:58;;;;;;;5.22;3.63;;;19.10;99.90;;;;;;5090644;28;20051;-74
2022/06/30 04:09:24;;;;;;;4.80;3.47;;;19.10;99.90;;;;;;5109981;28;20040;-75
2022/06/30 04:11:50;;;;;;;4.20;3.80;;;19.10;99.90;;;;;;5095136;28;20398;-75
2022/06/30 04:14:15;;;;;;;4.15;3.75;;;19.10;99.90;;;;;;5111994;28;20039;-75
2022/06/30 04:16:41;;;;;;;5.53;4.00;;;19.10;99.90;;;;;;5082051;28;20040;-75
2022/06/30 04:19:07;;;;;;;6.03;4.25;;;19.00;99.90;;;;;;5066823;28;20044;-76
2022/06/30 04:21:32;;;;;;;5.85;3.88;;;19.10;99.90;;;;;;5057910;28;20097;-76
2022/06/30 04:23:58;;;;;;;6.90;4.45;;;19.00;99.90;;;;;;5074473;28;20315;-76
2022/06/30 04:26:23;;;;;;;5.57;4.40;;;19.00;99.90;;;;;;5097643;28;20479;-76
2022/06/30 04:28:49;;;;;;;6.80;4.60;;;19.00;99.90;;;;;;5105801;28;20040;-76
2022/06/30 04:33:59;;;;;;;6.30;4.28;;;19.10;99.90;;;;;;5094704;28;20092;-76
2022/06/30 04:36:24;;;;;;;5.05;4.45;;;19.10;99.90;;;;;;5091961;28;20043;-75
2022/06/30 04:38:50;;;;;;;5.70;4.65;;;19.10;99.90;;;;;;5087065;28;20547;-75
2022/06/30 04:41:25;;;;;;;10.18;4.97;;;19.10;99.90;;;;;;5076636;28;20040;-75
2022/06/30 04:43:55;;;;;;;5.35;4.50;;;19.10;99.90;;;;;;5081954;28;20031;-76
2022/06/30 04:46:22;;;;;;;5.68;4.22;;;19.10;99.90;;;;;;5087047;28;20523;-75
2022/06/30 04:48:48;;;;;;;5.90;5.03;;;19.20;99.90;;;;;;5085689;28;20975;-75
2022/06/30 04:51:13;;;;;;;6.93;4.45;;;19.10;99.90;;;;;;5099255;28;20044;-75
2022/06/30 04:53:40;;;;;;;7.22;4.80;;;19.20;99.90;;;;;;5107719;28;20100;-78
2022/06/30 04:56:06;;;;;;;;;;;19.20;99.90;;;;;;5077087;28;20043;-77
2022/06/30 04:58:32;;;;;;;7.18;4.45;;;19.20;99.90;;;;;;5092490;28;19927;-78
2022/06/30 05:00:57;;;;;;;7.68;4.85;;;19.30;99.90;;;;;;5103605;28;20491;-78
2022/06/30 05:03:23;;;;;;;7.78;5.05;;;19.30;99.90;;;;;;5091882;28;20036;-77
2022/06/30 05:05:49;;;;;;;6.90;5.15;;;19.30;99.90;;;;;;5093398;28;20544;-77
2022/06/30 05:08:14;;;;;;;6.60;4.50;;;19.40;99.90;;;;;;5057368;28;20070;-79
2022/06/30 05:10:40;;;;;;;5.47;4.75;;;19.40;99.90;;;;;;5078720;28;20040;-78
2022/06/30 05:13:07;;;;;;;5.15;4.55;;;19.40;99.90;;;;;;5087456;28;20032;-78
2022/06/30 05:15:33;;;;;;;4.70;4.22;;;19.40;99.90;;;;;;5094830;28;20090;-78
2022/06/30 05:18:00;;;;;;;5.60;4.53;;;19.40;99.90;;;;;;5077439;28;20123;-78
2022/06/30 05:20:26;;;;;;;7.38;4.80;;;19.40;99.90;;;;;;5087748;28;20039;-78
2022/06/30 05:22:51;;;;;;;5.22;4.30;;;19.40;99.90;;;;;;5082805;28;20094;-79
2022/06/30 05:28:02;;;;;;;7.43;4.50;;;19.50;99.90;;;;;;5108753;28;20488;-79
2022/06/30 05:30:28;;;;;;;;;;;19.60;99.90;;;;;;5104502;28;20044;-78
2022/06/30 05:32:53;;;;;;;6.53;4.78;;;19.80;99.90;;;;;;5087126;28;20379;-79
2022/06/30 05:35:19;;;;;;;7.57;4.70;;;19.90;99.90;;;;;;5069304;28;20047;-79
2022/06/30 05:37:45;;;;;;;5.85;4.40;;;20.00;99.90;;;;;;5078551;28;20047;-78
2022/06/30 05:40:11;;;;;;;4.47;3.88;;;20.20;99.90;;;;;;5088123;28;20055;-78
2022/06/30 05:42:37;;;;;;;5.20;4.30;;;20.40;99.90;;;;;;5079244;28;20132;-77
2022/06/30 05:45:04;;;;;;;6.18;4.28;;;20.50;99.90;;;;;;5089018;28;20498;-78
2022/06/30 05:47:30;;;;;;;6.90;4.70;;;20.60;99.90;;;;;;5076542;28;20044;-78
2022/06/30 05:49:56;;;;;;;5.90;4.25;;;20.60;99.90;;;;;;5092117;28;20483;-78
2022/06/30 05:52:22;;;;;;;6.07;4.07;;;20.70;99.90;;;;;;5093998;28;20124;-78
2022/06/30 05:54:48;;;;;;;5.22;3.78;;;20.80;99.90;;;;;;5069729;28;20039;-78
2022/06/30 05:57:14;;;;;;;5.45;4.00;;;20.90;99.90;;;;;;5087039;28;20455;-79
2022/06/30 05:59:39;;;;;;;5.20;3.95;;;21.00;99.90;;;;;;5097766;28;20454;-78
2022/06/30 06:02:05;;;;;;;6.25;4.10;;;21.20;99.90;;;;;;5084392;28;20070;-78
2022/06/30 06:04:31;;;;;;;6.05;4.20;;;21.20;99.90;;;;;;5092257;28;20035;-77
2022/06/30 06:06:57;;;;;;;4.70;3.80;;;21.40;99.90;;;;;;5094347;28;20063;-79
2022/06/30 06:09:22;;;;;;;;;;;21.60;99.90;;;;;;5084423;28;20040;-79
2022/06/30 06:11:48;;;;;;;4.38;3.72;;;22.00;99.90;;;;;;5106601;28;19920;-79
2022/06/30 06:14:14;;;;;;;5.57;4.13;;;22.40;99.90;;;;;;5086221;28;20036;-77
2022/06/30 06:16:39;;;;;;;4.20;3.60;;;22.60;99.90;;;;;;5095824;28;20418;-78
2022/06/30 06:19:05;;;;;;;4.97;3.63;;;22.90;99.90;;;;;;5091597;28;20040;-78
2022/06/30 06:21:34;;;;;;;6.43;3.55;;;23.10;99.90;;;;;;5092363;28;20035;-78
2022/06/30 06:23:59;;;;;;;3.70;3.35;;;23.20;99.90;;;;;;5082934;28;20045;-79
2022/06/30 06:26:25;;;;;;;5.60;3.72;;;23.50;99.90;;;;;;5073672;28;20405;-79
2022/06/30 06:29:06;;;;;;;;;;;23.50;99.90;;;;;;5074153;28;20115;-78
2022/06/30 06:31:34;;;;;;;4.95;3.75;;;23.60;99.90;;;;;;5105430;28;20387;-79
2022/06/30 06:34:01;;;;;;;4.72;4.03;;;23.70;99.90;;;;;;5091022;28;20063;-78
2022/06/30 06:36:27;;;;;;;4.68;3.50;;;23.50;99.90;;;;;;5080854;28;20075;-78
2022/06/30 06:38:53;;;;;;;4.70;3.70;;;23.70;99.90;;;;;;5086223;28;20039;-79
2022/06/30 06:41:22;;;;;;;;;;;23.80;99.90;;;;;;5106359;28;20044;-78
2022/06/30 06:43:49;;;;;;;8.27;4.25;;;23.90;99.90;;;;;;5106548;28;20413;-79
2022/06/30 06:46:14;;;;;;;6.15;4.10;;;24.00;99.90;;;;;;5093555;28;20407;-79
2022/06/30 06:48:40;;;;;;;;;;;24.00;99.90;;;;;;5085635;28;20051;-79
2022/06/30 06:51:06;;;;;;;5.15;3.67;;;24.20;99.90;;;;;;5076447;28;19923;-78
2022/06/30 06:53:32;;;;;;;5.47;3.78;;;24.30;99.90;;;;;;5093490;28;20042;-78
2022/06/30 06:55:57;;;;;;;;;;;24.40;99.90;;;;;;5078920;28;20036;-78
2022/06/30 06:58:23;;;;;;;4.80;3.58;;;24.20;99.90;;;;;;5095410;28;19924;-78
2022/06/30 07:00:49;;;;;;;5.32;3.50;;;24.30;99.90;;;;;;5072837;28;20056;-78
2022/06/30 07:03:15;;;;;;;;;;;24.40;99.90;;;;;;5081389;28;20054;-77
2022/06/30 07:05:41;;;;;;;5.13;3.50;;;24.50;99.90;;;;;;5073243;28;19916;-78
2022/06/30 07:08:06;;;;;;;;;;;24.50;99.90;;;;;;5096210;28;20062;-77
2022/06/30 07:10:32;;;;;;;5.55;3.97;;;24.60;99.90;;;;;;5103849;28;19915;-78
2022/06/30 07:12:57;;;;;;;;;;;24.80;99.90;;;;;;5096018;28;20031;-78
2022/06/30 07:15:23;;;;;;;4.45;3.75;;;24.90;99.90;;;;;;5092292;28;19961;-78
2022/06/30 07:17:49;;;;;;;;;;;25.00;99.90;;;;;;5081238;28;20071;-78
2022/06/30 07:20:14;;;;;;;5.93;3.65;;;25.10;99.90;;;;;;5077504;28;19923;-78
2022/06/30 07:22:40;;;;;;;;;;;25.20;99.90;;;;;;5072655;28;20116;-78
2022/06/30 07:25:06;;;;;;;6.30;3.58;;;25.40;99.90;;;;;;5111033;28;19920;-79
2022/06/30 07:27:33;;;;;;;7.28;3.80;;;25.50;99.90;;;;;;5075934;28;20047;-79
2022/06/30 07:29:58;;;;;;;4.72;3.15;;;25.70;99.90;;;;;;5080622;28;20036;-79
2022/06/30 07:32:25;;;;;;;4.68;3.60;;;25.90;99.90;;;;;;5106819;28;20044;-78
2022/06/30 07:34:50;;;;;;;5.65;3.67;;;26.10;99.90;;;;;;5089049;28;20055;-77
2022/06/30 07:37:16;;;;;;;5.65;3.58;;;26.10;99.90;;;;;;5097060;28;20048;-78
2022/06/30 07:39:42;;;;;;;4.38;3.75;;;26.10;99.90;;;;;;5092363;28;20032;-78
2022/06/30 07:42:08;;;;;;;6.03;3.80;;;26.20;99.90;;;;;;5075466;28;20118;-79
2022/06/30 07:44:33;;;;;;;4.25;3.85;;;26.30;99.90;;;;;;5089636;28;20032;-78
2022/06/30 07:46:59;;;;;;;4.85;3.80;;;26.40;99.90;;;;;;5089376;28;20039;-79
2022/06/30 07:49:25;;;;;;;4.13;3.72;;;26.30;99.90;;;;;;5091046;28;20457;-78
2022/06/30 07:51:52;;;;;;;5.50;3.60;;;26.30;99.90;;;;;;5089292;28;20513;-77
2022/06/30 07:54:19;;;;;;;5.30;3.60;;;26.30;99.90;;;;;;5092452;28;20076;-78
2022/06/30 07:56:45;;;;;;;6.00;4.05;;;26.40;99.90;;;;;;5110028;28;20047;-78
2022/06/30 07:59:11;;;;;;;5.95;3.90;;;26.60;99.90;;;;;;5091526;28;20036;-77
2022/06/30 08:01:36;;;;;;;5.63;3.92;;;26.80;99.90;;;;;;5094522;28;20032;-78
2022/06/30 08:04:02;;;;;;;5.50;4.30;;;26.90;99.90;;;;;;5096314;28;20880;-77
2022/06/30 08:06:28;;;;;;;5.72;3.92;;;27.00;99.90;;;;;;5092099;28;20036;-78
2022/06/30 08:08:54;;;;;;;6.35;4.07;;;27.20;99.90;;;;;;5091883;28;20396;-78
2022/06/30 08:11:20;;;;;;;6.82;3.80;;;27.40;99.90;;;;;;5092033;28;20088;-79
2022/06/30 08:13:45;;;;;;;5.50;4.20;;;27.60;99.90;;;;;;5090757;28;20052;-78
2022/06/30 08:16:12;;;;;;;6.72;4.50;;;28.00;99.90;;;;;;5072170;28;20472;-77
2022/06/30 08:18:38;;;;;;;5.13;4.40;;;28.10;99.90;;;;;;5073039;28;20115;-78
2022/06/30 08:21:04;;;;;;;5.85;4.70;;;28.30;99.90;;;;;;5088674;28;20082;-78
2022/06/30 08:23:30;;;;;;;8.85;4.60;;;28.40;99.90;;;;;;5102429;28;20058;-76
2022/06/30 08:25:56;;;;;;;5.18;4.45;;;28.30;99.80;;;;;;5077338;28;20101;-77
2022/06/30 08:28:22;;;;;;;5.00;4.53;;;28.20;99.90;;;;;;5076741;28;20040;-77
2022/06/30 08:30:48;;;;;;;5.95;4.40;;;28.20;99.60;;;;;;5082007;28;20037;-78
2022/06/30 08:33:15;;;;;;;6.40;4.68;;;28.10;99.70;;;;;;5075727;28;20483;-78
2022/06/30 08:35:40;;;;;;;6.75;5.00;;;28.30;99.90;;;;;;5087514;28;20027;-78
2022/06/30 08:38:06;;;;;;;5.13;4.63;;;28.40;99.80;;;;;;5092764;28;20046;-77
2022/06/30 08:43:19;;;;;;;6.63;4.70;;;28.70;99.60;;;;;;5080449;28;20080;-77
2022/06/30 08:45:45;;;;;;;6.88;4.75;;;28.90;99.30;;;;;;5086322;28;20518;-78
2022/06/30 08:48:12;;;;;;;5.57;4.80;;;29.10;99.70;;;;;;5091665;28;20071;-78
2022/06/30 08:50:43;;;;;;;6.63;4.70;;;29.20;99.10;;;;;;5095431;28;20528;-78
2022/06/30 08:53:10;;;;;;;7.45;5.20;;;29.30;98.90;;;;;;5089342;28;20694;-77
2022/06/30 08:55:36;;;;;;;5.40;4.50;;;29.30;98.50;;;;;;5096844;28;20077;-79
2022/06/30 08:58:08;;;;;;;10.38;5.65;;;29.20;99.10;;;;;;5083718;28;20169;-77
2022/06/30 09:00:35;;;;;;;5.38;4.22;;;29.30;99.10;;;;;;5095231;28;20054;-78
2022/06/30 09:03:02;;;;;;;6.75;4.60;;;29.30;99.10;;;;;;5095193;28;20038;-77
2022/06/30 09:05:28;;;;;;;5.53;4.30;;;29.30;99.20;;;;;;5085452;28;20036;-78
2022/06/30 09:07:53;;;;;;;8.13;4.70;;;29.30;99.40;;;;;;5111754;28;20510;-78
2022/06/30 09:10:20;;;;;;;4.85;4.35;;;29.40;99.30;;;;;;5095371;28;20061;-77
2022/06/30 09:12:58;;;;;;;5.68;5.00;;;29.50;99.50;;;;;;5095045;28;20093;-78
2022/06/30 09:15:25;;;;;;;5.03;4.45;;;29.60;99.00;;;;;;5094702;28;20040;-78
2022/06/30 09:17:51;;;;;;;5.97;4.75;;;29.90;99.40;;;;;;5076331;28;20043;-76
2022/06/30 09:20:17;;;;;;;7.70;4.85;;;30.10;98.90;;;;;;5091295;28;20117;-78
2022/06/30 09:22:43;;;;;;;5.28;4.78;;;30.20;98.40;;;;;;5094986;28;20028;-77
2022/06/30 09:25:20;;;;;;;5.70;4.18;;;30.10;98.50;;;;;;5092264;28;20043;-77
2022/06/30 09:27:47;;;;;;;8.43;4.85;;;30.20;99.20;;;;;;5080661;28;20039;-78
2022/06/30 09:30:15;;;;;;;7.65;4.68;;;30.20;99.10;;;;;;5095270;28;20040;-77
2022/06/30 09:32:57;;;;;;;5.60;5.10;;;30.40;99.00;;;;;;5073476;28;20045;-78
2022/06/30 09:35:28;;;;;;;5.38;4.88;;;30.80;98.50;;;;;;5102242;28;20040;-78
2022/06/30 09:38:01;;;;;;;5.95;5.35;;;31.30;98.50;;;;;;5096522;28;20047;-78
2022/06/30 09:40:35;;;;;;;6.65;4.82;;;31.40;97.90;;;;;;5079135;28;20472;-77
2022/06/30 09:43:03;;;;;;;7.32;5.00;;;31.10;97.50;;;;;;5090801;28;20036;-78
2022/06/30 09:45:42;;;;;;;5.40;4.68;;;31.10;97.80;;;;;;5094909;28;20035;-78
2022/06/30 09:48:12;;;;;;;5.63;5.13;;;31.10;98.30;;;;;;5073084;28;20035;-78
2022/06/30 09:50:38;;;;;;;5.40;4.53;;;31.20;97.90;;;;;;5112994;28;20414;-78
2022/06/30 09:53:14;;;;;;;7.00;5.07;;;31.70;97.80;;;;;;5112923;28;20476;-77
2022/06/30 09:55:45;;;;;;;7.20;5.43;;;31.90;97.40;;;;;;5107593;28;20137;-77
2022/06/30 09:58:14;;;;;;;5.38;4.85;;;32.30;96.60;;;;;;5086098;28;20039;-78
2022/06/30 10:00:43;;;;;;;8.02;5.43;;;32.30;97.00;;;;;;5106417;28;20047;-77
2022/06/30 10:03:09;;;;;;;6.65;5.90;;;32.30;96.90;;;;;;5089379;28;20456;-77
2022/06/30 10:05:34;;;;;;;8.57;7.25;;;32.50;96.90;;;;;;5094674;28;20327;-78
2022/06/30 10:08:01;;;;;;;9.05;7.57;;;32.80;96.50;;;;;;5093013;28;20065;-77
2022/06/30 10:10:29;;;;;;;9.60;8.45;;;33.10;96.20;;;;;;5077690;28;20043;-78
2022/06/30 10:12:56;;;;;;;9.55;7.95;;;33.10;95.90;;;;;;5092945;28;20040;-78
2022/06/30 10:15:23;;;;;;;8.20;6.97;;;33.40;95.80;;;;;;5086883;28;20050;-78
2022/06/30 10:17:56;;;;;;;9.75;8.70;;;33.50;96.00;;;;;;5094714;28;20047;-77
2022/06/30 10:20:22;;;;;;;10.05;8.98;;;33.80;95.60;;;;;;5120141;28;20041;-76
2022/06/30 10:22:49;;;;;;;9.77;8.77;;;33.70;95.30;;;;;;5091662;28;20031;-77
2022/06/30 10:25:16;;;;;;;9.80;8.75;;;33.90;95.10;;;;;;5114073;28;20557;-78
2022/06/30 10:27:44;;;;;;;10.73;9.70;;;34.00;94.50;;;;;;5111049;28;20043;-77
2022/06/30 10:30:13;;;;;;;10.50;9.40;;;33.90;94.70;;;;;;5074329;28;20043;-77
2022/06/30 10:32:57;;;;;;;9.10;8.20;;;33.90;94.90;;;;;;5111595;28;20180;-78
2022/06/30 10:35:41;;;;;;;9.80;8.85;;;33.90;95.20;;;;;;5076149;28;20055;-78
2022/06/30 10:38:16;;;;;;;10.93;9.10;;;33.80;94.90;;;;;;5092506;28;20088;-77
2022/06/30 10:41:10;;;;;;;10.95;9.52;;;33.80;95.00;;;;;;5094031;28;20040;-78
2022/06/30 10:44:05;;;;;;;8.77;7.97;;;34.30;94.70;;;;;;5107998;28;20479;-78
2022/06/30 10:46:33;;;;;;;10.23;9.18;;;34.50;94.70;;;;;;5076984;28;20123;-78
2022/06/30 10:49:06;;;;;;;9.90;8.98;;;34.70;94.30;;;;;;5069650;28;20043;-78
2022/06/30 10:51:31;;;;;;;8.98;7.28;;;34.40;93.90;;;;;;5094296;28;20079;-77
2022/06/30 10:53:58;;;;;;;8.38;7.53;;;34.70;94.60;;;;;;5085765;28;20075;-77
2022/06/30 10:56:49;;;;;;;8.77;7.95;;;34.70;94.20;;;;;;5091109;28;20039;-78
2022/06/30 10:59:28;;;;;;;8.35;7.65;;;35.00;94.20;;;;;;5084816;28;20108;-77
2022/06/30 11:02:15;;;;;;;7.10;6.50;;;35.40;94.60;;;;;;5114050;28;20046;-77
2022/06/30 11:04:49;;;;;;;7.90;7.10;;;35.00;94.40;;;;;;5085251;28;20047;-77
2022/06/30 11:07:18;;;;;;;8.43;7.63;;;35.00;94.40;;;;;;5093050;28;20047;-77
2022/06/30 11:09:44;;;;;;;8.85;7.65;;;34.50;94.20;;;;;;5087534;28;20100;-78
2022/06/30 11:12:16;;;;;;;8.90;8.00;;;34.20;94.40;;;;;;5067981;28;20043;-77
2022/06/30 11:14:52;;;;;;;7.78;7.03;;;33.80;94.70;;;;;;5098678;28;20092;-78
2022/06/30 11:17:29;;;;;;;8.45;6.82;;;33.50;94.60;;;;;;5092514;28;20555;-77
2022/06/30 11:20:07;;;;;;;5.63;5.13;;;33.10;95.40;;;;;;5104280;28;20044;-77
2022/06/30 11:22:33;;;;;;;5.90;5.18;;;32.70;95.60;;;;;;5093319;28;20402;-77
2022/06/30 11:25:06;;;;;;;6.53;5.82;;;32.30;96.10;;;;;;5092609;28;20053;-77
2022/06/30 11:27:33;;;;;;;6.25;5.65;;;32.10;95.70;;;;;;5093147;28;20070;-78
2022/06/30 11:30:07;;;;;;;8.70;6.15;;;32.10;98.20;;;;;;5115037;28;20081;-78
2022/06/30 11:32:33;;;;;;;5.90;5.35;;;32.40;97.40;;;;;;5092229;28;20048;-78
2022/06/30 11:34:59;;;;;;;7.57;5.28;;;32.60;95.30;;;;;;5114577;28;20035;-78
2022/06/30 11:37:27;;;;;;;5.65;4.85;;;32.80;95.60;;;;;;5090909;28;20055;-78
2022/06/30 11:40:05;;;;;;;6.50;4.70;;;32.80;95.00;;;;;;5080965;28;20042;-77
2022/06/30 11:42:33;;;;;;;6.35;5.38;;;33.00;94.60;;;;;;5109476;28;20074;-77
2022/06/30 11:44:59;;;;;;;9.25;5.43;;;33.00;95.10;;;;;;5110344;28;20552;-78
2022/06/30 11:47:28;;;;;;;5.72;5.22;;;32.90;95.00;;;;;;5092496;28;20092;-78
2022/06/30 11:49:59;;;;;;;8.88;5.40;;;33.10;95.10;;;;;;5109147;28;20032;-78
2022/06/30 11:52:41;;;;;;;7.05;5.25;;;33.40;94.70;;;;;;5109281;28;20043;-78
2022/06/30 11:55:12;;;;;;;5.93;4.75;;;33.60;95.00;;;;;;5086907;28;20053;-78
2022/06/30 11:57:48;;;;;;;5.43;4.07;;;33.40;94.90;;;;;;5080057;28;20112;-78
2022/06/30 12:00:16;;;;;;;9.02;5.60;;;33.70;95.20;;;;;;5106748;28;20408;-76
2022/06/30 12:02:44;;;;;;;8.98;5.57;;;33.70;94.90;;;;;;5093091;28;20044;-79
2022/06/30 12:05:14;;;;;;;9.45;5.63;;;33.60;95.10;;;;;;5086509;28;20105;-78
2022/06/30 12:07:41;;;;;;;7.57;5.28;;;33.90;95.60;;;;;;5095757;28;20510;-78
2022/06/30 12:10:09;;;;;;;7.45;6.07;;;33.90;94.20;;;;;;5098468;28;20044;-78
2022/06/30 12:12:36;;;;;;;6.75;6.07;;;33.80;94.60;;;;;;5104402;28;20408;-79
2022/06/30 12:15:14;;;;;;;6.38;5.50;;;33.50;94.10;;;;;;5108426;28;20043;-79
2022/06/30 12:17:52;;;;;;;7.22;5.88;;;33.30;94.70;;;;;;5104250;28;20051;-78
2022/06/30 12:20:19;;;;;;;7.45;5.40;;;33.40;94.90;;;;;;5089754;28;20042;-77
2022/06/30 12:22:50;;;;;;;5.28;4.78;;;33.20;94.00;;;;;;5092399;28;20031;-78
2022/06/30 12:25:16;;;;;;;5.78;4.65;;;33.30;94.60;;;;;;5083654;28;20419;-79
2022/06/30 12:27:43;;;;;;;9.30;4.80;;;33.50;94.90;;;;;;5092067;28;20039;-78
2022/06/30 12:30:21;;;;;;;5.32;4.18;;;33.80;93.30;;;;;;5093694;28;20040;-78
2022/06/30 12:32:55;;;;;;;6.88;4.47;;;34.10;93.30;;;;;;5109738;28;20073;-77
2022/06/30 12:35:22;;;;;;;5.72;4.30;;;34.30;94.00;;;;;;5118775;28;20043;-77
2022/06/30 12:37:48;;;;;;;7.78;4.18;;;34.20;93.70;;;;;;5098166;28;20055;-77
2022/06/30 12:40:21;;;;;;;7.07;4.90;;;34.20;93.70;;;;;;5095858;28;20043;-77
2022/06/30 12:42:55;;;;;;;5.93;5.13;;;34.10;93.30;;;;;;5076730;28;20070;-78
2022/06/30 12:45:55;;;;;;;7.68;5.93;;;33.60;94.00;;;;;;5111640;28;20040;-77
2022/06/30 12:48:54;;;;;;;6.28;5.68;;;33.20;94.20;;;;;;5093500;28;20040;-77
2022/06/30 12:51:32;;;;;;;6.50;5.82;;;32.40;94.60;;;;;;5104296;28;20051;-77
2022/06/30 12:54:04;;;;;;;6.70;6.10;;;32.00;95.10;;;;;;5089852;28;20119;-77
2022/06/30 12:56:30;;;;;;;6.85;5.78;;;31.90;95.70;;;;;;5085582;28;20122;-77
2022/06/30 12:59:28;;;;;;;8.43;6.30;;;31.50;95.70;;;;;;5087141;28;20130;-78
2022/06/30 13:01:56;;;;;;;7.05;6.45;;;31.10;96.00;;;;;;5061548;28;20058;-78
2022/06/30 13:04:27;;;;;;;7.20;6.53;;;30.60;96.10;;;;;;5068584;28;20089;-78
2022/06/30 13:06:55;;;;;;;8.20;7.50;;;30.60;96.50;;;;;;5107393;28;20035;-78
2022/06/30 13:09:26;;;;;;;8.40;7.40;;;30.20;97.20;;;;;;5110340;28;20376;-76